createdAt,value
2022-12-25T00:00:40.038Z,25.00
2022-12-25T00:03:58.800Z,24.78
2022-12-25T00:07:15.855Z,25.33
2022-12-25T00:10:32.461Z,25.78
2022-12-25T00:13:50.103Z,21.35
2022-12-25T00:17:06.604Z,26.33
2022-12-25T00:20:23.096Z,26.10
2022-12-25T00:23:40.471Z,25.45
2022-12-25T00:26:56.523Z,27.15
2022-12-25T00:30:14.839Z,23.68
2022-12-25T00:33:30.892Z,25.93
2022-12-25T00:36:46.970Z,24.68
2022-12-25T00:40:03.267Z,24.08
2022-12-25T00:43:19.797Z,25.53
2022-12-25T00:46:35.973Z,24.28
2022-12-25T00:49:52.932Z,24.05
2022-12-25T00:53:09.026Z,23.93
2022-12-25T00:56:25.339Z,26.10
2022-12-25T00:59:42.602Z,22.73
2022-12-25T01:02:59.292Z,24.75
2022-12-25T01:06:19.351Z,25.75
2022-12-25T01:09:49.603Z,23.85
2022-12-25T01:13:06.017Z,27.88
2022-12-25T01:16:22.243Z,26.13
2022-12-25T01:19:38.424Z,27.23
2022-12-25T01:22:55.498Z,27.48
2022-12-25T01:26:17.052Z,26.63
2022-12-25T01:29:33.137Z,24.45
2022-12-25T01:32:49.279Z,27.45
2022-12-25T01:36:05.509Z,23.95
2022-12-25T01:39:21.579Z,26.45
2022-12-25T01:42:38.192Z,25.00
2022-12-25T01:45:54.760Z,23.45
2022-12-25T01:49:15.771Z,24.98
2022-12-25T01:52:33.929Z,25.05
2022-12-25T01:55:52.937Z,26.48
2022-12-25T01:59:10.061Z,21.43
2022-12-25T02:02:26.429Z,25.58
2022-12-25T02:05:44.192Z,25.50
2022-12-25T02:09:00.636Z,22.53
2022-12-25T02:12:20.739Z,19.70
2022-12-25T02:15:43.224Z,24.68
2022-12-25T02:19:03.683Z,25.95
2022-12-25T02:22:26.692Z,24.30
2022-12-25T02:25:54.130Z,22.03
2022-12-25T02:29:16.659Z,21.80
2022-12-25T02:32:36.921Z,23.98
2022-12-25T02:35:56.892Z,22.65
2022-12-25T02:39:33.566Z,21.48
2022-12-25T02:43:09.435Z,21.68
2022-12-25T02:46:48.817Z,21.00
2022-12-25T02:53:53.451Z,18.27
2022-12-25T02:57:28.361Z,23.43
2022-12-25T03:01:03.082Z,21.93
2022-12-25T03:04:37.213Z,19.58
2022-12-25T03:07:55.076Z,22.65
2022-12-25T03:11:28.385Z,19.18
2022-12-25T03:14:58.795Z,19.25
2022-12-25T03:18:19.488Z,22.98
2022-12-25T03:21:50.103Z,24.98
2022-12-25T03:25:20.595Z,20.52
2022-12-25T03:28:37.910Z,20.20
2022-12-25T03:31:59.060Z,20.50
2022-12-25T03:35:29.136Z,24.43
2022-12-25T03:39:05.582Z,22.78
2022-12-25T03:42:49.993Z,20.08
2022-12-25T03:46:24.076Z,26.23
2022-12-25T03:49:58.891Z,26.45
2022-12-25T03:53:34.104Z,23.40
2022-12-25T03:57:05.929Z,23.75
2022-12-25T04:00:37.894Z,24.68
2022-12-25T04:04:08.095Z,22.55
2022-12-25T04:07:37.997Z,22.78
2022-12-25T04:11:08.276Z,22.78
2022-12-25T04:14:38.321Z,25.10
2022-12-25T04:18:10.277Z,24.63
2022-12-25T04:21:40.631Z,21.93
2022-12-25T04:25:10.792Z,20.88
2022-12-25T04:28:41.073Z,25.35
2022-12-25T04:32:11.287Z,19.85
2022-12-25T04:35:52.828Z,22.83
2022-12-25T04:39:08.932Z,19.80
2022-12-25T04:42:25.306Z,23.73
2022-12-25T04:45:41.697Z,18.65
2022-12-25T04:48:57.838Z,21.80
2022-12-25T04:52:14.239Z,22.13
2022-12-25T04:55:30.225Z,20.03
2022-12-25T04:58:46.858Z,17.45
2022-12-25T05:02:02.949Z,24.80
2022-12-25T05:05:19.518Z,22.78
2022-12-25T05:08:36.021Z,21.03
2022-12-25T05:11:52.160Z,22.63
2022-12-25T05:15:08.470Z,19.70
2022-12-25T05:18:25.002Z,23.70
2022-12-25T05:21:41.352Z,22.43
2022-12-25T05:24:57.588Z,22.85
2022-12-25T05:28:14.711Z,19.25
2022-12-25T05:31:31.411Z,22.03
2022-12-25T05:34:47.700Z,21.68
2022-12-25T05:38:04.051Z,21.90
2022-12-25T05:41:20.316Z,21.08
2022-12-25T05:44:36.373Z,21.50
2022-12-25T05:47:52.633Z,23.25
2022-12-25T05:51:14.667Z,25.15
2022-12-25T05:54:31.034Z,18.75
2022-12-25T05:57:47.297Z,23.15
2022-12-25T06:01:03.855Z,22.55
2022-12-25T06:04:20.036Z,22.35
2022-12-25T06:07:36.475Z,21.90
2022-12-25T06:10:52.650Z,21.53
2022-12-25T06:14:08.863Z,24.05
2022-12-25T06:17:25.038Z,22.85
2022-12-25T06:20:41.526Z,22.10
2022-12-25T06:23:57.939Z,24.08
2022-12-25T06:27:14.207Z,19.90
2022-12-25T06:30:30.209Z,21.33
2022-12-25T06:33:47.203Z,21.05
2022-12-25T06:37:03.340Z,20.48
2022-12-25T06:40:21.341Z,22.58
2022-12-25T06:43:37.379Z,20.98
2022-12-25T06:46:53.603Z,19.80
2022-12-25T06:50:10.162Z,22.98
2022-12-25T06:53:32.285Z,19.83
2022-12-25T06:56:47.557Z,18.60
2022-12-25T07:00:04.383Z,21.68
2022-12-25T07:03:24.970Z,20.68
2022-12-25T07:06:41.245Z,18.25
2022-12-25T07:09:57.331Z,20.60
2022-12-25T07:13:13.465Z,19.50
2022-12-25T07:16:30.795Z,20.05
2022-12-25T07:19:47.132Z,19.33
2022-12-25T07:23:03.202Z,18.63
2022-12-25T07:26:20.537Z,18.53
2022-12-25T07:29:36.650Z,22.30
2022-12-25T07:32:53.307Z,18.50
2022-12-25T07:36:13.068Z,18.83
2022-12-25T07:42:44.333Z,18.85
2022-12-25T07:46:06.261Z,20.55
2022-12-25T07:49:23.533Z,21.03
2022-12-25T07:52:43.487Z,21.45
2022-12-25T07:56:05.956Z,22.70
2022-12-25T07:59:22.168Z,16.25
2022-12-25T08:02:38.641Z,19.13
2022-12-25T08:05:55.027Z,15.68
2022-12-25T08:09:16.477Z,15.70
2022-12-25T08:12:32.535Z,18.70
2022-12-25T08:15:49.342Z,18.70
2022-12-25T08:19:05.420Z,18.53
2022-12-25T08:22:21.670Z,17.45
2022-12-25T08:25:38.586Z,20.20
2022-12-25T08:28:55.663Z,17.95
2022-12-25T08:32:11.818Z,19.60
2022-12-25T08:35:28.298Z,17.53
2022-12-25T08:38:44.774Z,18.38
2022-12-25T08:42:01.015Z,18.08
2022-12-25T08:45:18.993Z,16.80
2022-12-25T08:48:35.569Z,20.10
2022-12-25T08:51:53.749Z,15.10
2022-12-25T08:55:10.259Z,18.30
2022-12-25T08:58:26.329Z,13.88
2022-12-25T09:01:42.570Z,17.65
2022-12-25T09:04:58.811Z,18.08
2022-12-25T09:08:15.959Z,17.28
2022-12-25T09:11:32.241Z,14.25
2022-12-25T09:14:48.974Z,19.48
2022-12-25T09:18:05.318Z,16.28
2022-12-25T09:21:23.585Z,15.98
2022-12-25T09:24:40.067Z,18.05
2022-12-25T09:27:56.229Z,16.25
2022-12-25T09:31:13.718Z,16.98
2022-12-25T09:34:29.877Z,17.23
2022-12-25T09:37:46.016Z,15.73
2022-12-25T09:41:10.979Z,15.90
2022-12-25T09:44:31.526Z,17.28
2022-12-25T09:47:51.848Z,18.63
2022-12-25T09:51:12.216Z,17.90
2022-12-25T09:54:34.275Z,19.03
2022-12-25T09:57:50.661Z,17.15
2022-12-25T10:01:12.099Z,15.88
2022-12-25T10:04:41.984Z,15.43
2022-12-25T10:08:04.241Z,56.73
2022-12-25T10:11:29.985Z,24.95
2022-12-25T10:14:51.795Z,16.68
2022-12-25T10:18:55.163Z,17.80
2022-12-25T10:22:17.283Z,17.43
2022-12-25T10:25:34.712Z,15.25
2022-12-25T10:28:55.949Z,13.25
2022-12-25T10:32:12.472Z,14.18
2022-12-25T10:35:33.614Z,11.65
2022-12-25T10:38:49.813Z,8.00
2022-12-25T10:42:32.742Z,10.15
2022-12-25T10:45:57.554Z,8.43
2022-12-25T10:49:19.120Z,11.08
2022-12-25T10:52:37.058Z,9.08
2022-12-25T10:56:02.010Z,12.60
2022-12-25T10:59:20.330Z,9.33
2022-12-25T11:02:40.784Z,8.18
2022-12-25T11:05:59.548Z,8.70
2022-12-25T11:09:23.452Z,8.35
2022-12-25T11:12:43.984Z,8.80
2022-12-25T11:16:11.345Z,10.00
2022-12-25T11:19:58.881Z,15.73
2022-12-25T11:23:24.101Z,11.50
2022-12-25T11:26:53.613Z,8.68
2022-12-25T11:30:16.056Z,12.20
2022-12-25T11:33:37.036Z,9.60
2022-12-25T11:36:56.369Z,9.68
2022-12-25T11:40:21.481Z,9.25
2022-12-25T11:43:41.711Z,8.03
2022-12-25T11:46:58.682Z,8.08
2022-12-25T11:50:24.296Z,9.35
2022-12-25T11:53:45.083Z,10.40
2022-12-25T11:57:04.171Z,11.83
2022-12-25T12:00:25.401Z,24.13
2022-12-25T12:03:45.809Z,15.08
2022-12-25T12:07:07.038Z,9.55
2022-12-25T12:10:26.994Z,9.53
2022-12-25T12:13:50.531Z,8.18
2022-12-25T12:17:07.592Z,10.75
2022-12-25T12:20:36.381Z,9.75
2022-12-25T12:24:03.120Z,10.83
2022-12-25T12:27:30.576Z,11.75
2022-12-25T12:30:47.137Z,8.33
2022-12-25T12:34:06.565Z,8.78
2022-12-25T12:37:28.019Z,10.98
2022-12-25T12:40:48.571Z,9.60
2022-12-25T12:44:09.416Z,11.63
2022-12-25T12:47:44.807Z,9.63
2022-12-25T12:51:12.968Z,16.23
2022-12-25T12:54:32.656Z,11.83
2022-12-25T12:57:49.356Z,9.00
2022-12-25T13:01:22.886Z,8.23
2022-12-25T13:05:04.876Z,13.83
2022-12-25T13:08:34.317Z,10.83
2022-12-25T13:11:52.352Z,10.20
2022-12-25T13:15:09.307Z,9.88
2022-12-25T13:18:26.288Z,10.00
2022-12-25T13:21:43.581Z,10.25
2022-12-25T13:25:08.509Z,11.90
2022-12-25T13:28:26.855Z,9.90
2022-12-25T13:31:45.556Z,9.48
2022-12-25T13:35:03.044Z,13.85
2022-12-25T13:38:24.908Z,11.43
2022-12-25T13:42:02.283Z,10.08
2022-12-25T13:45:34.509Z,12.70
2022-12-25T13:48:50.814Z,12.48
2022-12-25T13:52:17.401Z,13.20
2022-12-25T13:55:35.830Z,12.43
2022-12-25T13:58:54.542Z,12.25
2022-12-25T14:02:11.598Z,11.03
2022-12-25T14:05:42.856Z,15.18
2022-12-25T14:08:58.603Z,13.13
2022-12-25T14:12:19.337Z,11.60
2022-12-25T14:15:37.170Z,17.33
2022-12-25T14:19:03.395Z,12.88
2022-12-25T14:22:26.608Z,14.45
2022-12-25T14:25:48.650Z,14.78
2022-12-25T14:29:16.836Z,16.55
2022-12-25T14:32:32.906Z,12.75
2022-12-25T14:35:49.456Z,13.65
2022-12-25T14:39:12.422Z,12.75
2022-12-25T14:42:31.714Z,12.95
2022-12-25T14:49:11.712Z,14.78
2022-12-25T14:52:33.741Z,13.75
2022-12-25T14:55:53.335Z,15.65
2022-12-25T14:59:10.938Z,18.43
2022-12-25T15:02:28.404Z,18.30
2022-12-25T15:05:47.184Z,18.85
2022-12-25T15:09:10.730Z,19.17
2022-12-25T15:12:27.107Z,15.98
2022-12-25T15:15:44.413Z,16.90
2022-12-25T15:19:02.753Z,17.75
2022-12-25T15:22:22.323Z,16.40
2022-12-25T15:25:38.743Z,16.28
2022-12-25T15:28:55.044Z,16.85
2022-12-25T15:32:11.663Z,14.93
2022-12-25T15:35:29.851Z,16.00
2022-12-25T15:38:46.109Z,16.38
2022-12-25T15:42:17.696Z,19.15
2022-12-25T15:45:36.421Z,18.20
2022-12-25T15:48:52.640Z,17.90
2022-12-25T15:52:08.945Z,21.85
2022-12-25T15:55:26.052Z,18.48
2022-12-25T15:58:42.141Z,16.60
2022-12-25T16:02:01.359Z,16.98
2022-12-25T16:08:33.510Z,20.63
2022-12-25T16:11:51.147Z,26.70
2022-12-25T16:15:07.559Z,33.53
2022-12-25T16:18:24.765Z,29.45
2022-12-25T16:21:46.121Z,29.53
2022-12-25T16:25:03.102Z,43.00
2022-12-25T16:28:21.190Z,34.03
2022-12-25T16:31:37.780Z,40.80
2022-12-25T16:34:58.013Z,37.18
2022-12-25T16:38:14.181Z,40.33
2022-12-25T16:41:30.465Z,38.28
2022-12-25T16:44:47.309Z,39.55
2022-12-25T16:48:03.508Z,47.28
2022-12-25T16:51:22.179Z,28.13
2022-12-25T16:54:38.709Z,19.53
2022-12-25T16:57:55.110Z,17.73
2022-12-25T17:01:17.495Z,21.30
2022-12-25T17:04:34.817Z,19.38
2022-12-25T17:07:51.355Z,22.88
2022-12-25T17:11:11.149Z,24.53
2022-12-25T17:14:27.787Z,57.65
2022-12-25T17:17:44.035Z,57.45
2022-12-25T17:21:03.632Z,45.43
2022-12-25T17:24:20.799Z,36.60
2022-12-25T17:27:36.925Z,31.73
2022-12-25T17:30:53.188Z,39.23
2022-12-25T17:34:11.357Z,33.20
2022-12-25T17:37:27.874Z,38.68
2022-12-25T17:40:43.976Z,53.80
2022-12-25T17:44:00.361Z,50.58
2022-12-25T17:47:16.275Z,54.73
2022-12-25T17:50:37.389Z,53.85
2022-12-25T17:53:53.969Z,51.43
2022-12-25T17:57:09.942Z,49.85
2022-12-25T18:00:27.740Z,52.43
2022-12-25T18:03:44.240Z,46.53
2022-12-25T18:07:00.550Z,48.83
2022-12-25T18:10:19.835Z,45.68
2022-12-25T18:13:41.317Z,44.50
2022-12-25T18:16:57.982Z,47.53
2022-12-25T18:20:16.982Z,46.05
2022-12-25T18:27:56.181Z,43.73
2022-12-25T18:31:22.079Z,48.85
2022-12-25T18:34:38.740Z,51.20
2022-12-25T18:37:56.731Z,49.90
2022-12-25T18:41:15.280Z,53.83
2022-12-25T18:44:41.513Z,52.15
2022-12-25T18:48:34.262Z,50.65
2022-12-25T18:52:50.026Z,53.25
2022-12-25T18:55:29.296Z,55.28
2022-12-25T18:58:50.296Z,53.40
2022-12-25T19:02:06.803Z,61.15
2022-12-25T19:05:27.322Z,63.28
2022-12-25T19:08:44.129Z,59.48
2022-12-25T19:12:03.125Z,55.13
2022-12-25T19:15:20.768Z,57.40
2022-12-25T19:18:37.476Z,55.68
2022-12-25T19:21:59.528Z,69.75
2022-12-25T19:25:19.454Z,58.13
2022-12-25T19:31:49.931Z,68.85
2022-12-25T19:35:07.226Z,68.95
2022-12-25T19:38:23.829Z,65.85
2022-12-25T19:41:40.452Z,72.35
2022-12-25T19:44:56.695Z,70.05
2022-12-25T19:48:14.014Z,60.43
2022-12-25T19:51:35.556Z,62.05
2022-12-25T19:54:53.405Z,61.50
2022-12-25T19:58:10.989Z,63.08
2022-12-25T20:01:30.895Z,118.75
2022-12-25T20:04:47.509Z,78.40
2022-12-25T20:08:17.650Z,75.78
2022-12-25T20:12:03.048Z,68.58
2022-12-25T20:17:15.583Z,74.00
2022-12-25T20:19:08.702Z,67.90
2022-12-25T20:22:24.846Z,64.13
2022-12-25T20:25:41.427Z,59.35
2022-12-25T20:28:58.051Z,55.63
2022-12-25T20:32:15.001Z,54.15
2022-12-25T20:35:34.373Z,53.25
2022-12-25T20:38:50.742Z,63.45
2022-12-25T20:42:06.994Z,59.70
2022-12-25T20:45:23.889Z,62.35
2022-12-25T20:48:40.732Z,61.18
2022-12-25T20:52:03.020Z,62.03
2022-12-25T20:55:21.048Z,67.18
2022-12-25T20:58:40.291Z,57.68
2022-12-25T21:01:57.575Z,272.03
2022-12-25T21:05:16.907Z,81.50
2022-12-25T21:08:34.669Z,65.73
2022-12-25T21:11:50.901Z,93.80
2022-12-25T21:15:14.983Z,68.18
2022-12-25T21:18:29.117Z,76.68
2022-12-25T21:25:02.071Z,63.25
2022-12-25T21:28:35.147Z,62.35
2022-12-25T21:32:05.506Z,60.65
2022-12-25T21:35:22.238Z,67.45
2022-12-25T21:38:38.446Z,67.15
2022-12-25T21:41:57.387Z,66.63
2022-12-25T21:45:15.466Z,74.00
2022-12-25T21:48:32.923Z,74.13
2022-12-25T21:52:02.981Z,58.25
2022-12-25T21:55:19.891Z,60.40
2022-12-25T21:58:36.363Z,64.23
2022-12-25T22:01:54.001Z,72.10
2022-12-25T22:05:12.840Z,64.13
2022-12-25T22:08:28.852Z,71.90
2022-12-25T22:11:59.029Z,61.58
2022-12-25T22:15:20.683Z,83.33
2022-12-25T22:18:51.034Z,75.10
2022-12-25T22:22:07.224Z,77.73
2022-12-25T22:25:24.910Z,65.50
2022-12-25T22:28:41.022Z,62.43
2022-12-25T22:31:57.614Z,79.40
2022-12-25T22:35:17.404Z,70.85
2022-12-25T22:38:33.643Z,56.55
2022-12-25T22:41:50.318Z,58.00
2022-12-25T22:45:06.568Z,52.88
2022-12-25T22:48:22.885Z,55.30
2022-12-25T22:51:39.122Z,56.83
2022-12-25T22:54:55.555Z,56.45
2022-12-25T22:58:11.781Z,54.85
2022-12-25T23:01:29.498Z,58.23
2022-12-25T23:04:46.172Z,55.83
2022-12-25T23:08:02.337Z,59.73
2022-12-25T23:11:18.503Z,55.80
2022-12-25T23:14:44.223Z,57.90
2022-12-25T23:18:13.713Z,61.03
2022-12-25T23:25:11.826Z,58.30
2022-12-25T23:28:38.485Z,62.03
2022-12-25T23:31:54.802Z,61.60
2022-12-25T23:35:12.714Z,58.85
2022-12-25T23:38:28.878Z,59.80
2022-12-25T23:41:45.015Z,60.00
2022-12-25T23:45:01.242Z,60.95
2022-12-25T23:48:20.104Z,62.18
2022-12-25T23:51:36.363Z,63.08
2022-12-25T23:54:52.492Z,60.70
2022-12-25T23:58:08.926Z,66.43
